Time;durP1;ratioP1;P1;durP2;ratioP2;P2;SDS_P1;SDS_P2;PMS_P1;PMS_P2;Temp;Humidity;BMP_temperature;BMP_pressure;BME280_temperature;BME280_humidity;BME280_pressure;Samples;Min_cycle;Max_cycle;Signal;HPM_P1;HPM_P2
2021/10/30 00:01:22;;;;;;;16.25;7.00;;;;;;;;;;5018735;28;19909;-82
2021/10/30 00:03:50;;;;;;;15.48;6.35;;;;;;;;;;5013939;28;20060;-81
2021/10/30 00:06:16;;;;;;;14.48;6.90;;;;;;;;;;5014588;28;20037;-81
2021/10/30 00:08:42;;;;;;;12.38;5.70;;;;;;;;;;5013895;28;20033;-82
2021/10/30 00:11:09;;;;;;;14.30;4.90;;;;;;;;;;5016761;28;20033;-81
2021/10/30 00:13:35;;;;;;;11.48;5.07;;;;;;;;;;5015499;28;20029;-81
2021/10/30 00:16:01;;;;;;;11.18;4.78;;;;;;;;;;5014384;28;20087;-81
2021/10/30 00:18:27;;;;;;;;;;;;;;;;;;5016007;28;20036;-83
2021/10/30 00:20:54;;;;;;;12.73;5.20;;;;;;;;;;5018921;28;19957;-84
2021/10/30 00:23:20;;;;;;;15.30;6.93;;;;;;;;;;5022920;28;20033;-80
2021/10/30 00:25:46;;;;;;;17.55;8.93;;;;;;;;;;5013152;28;20878;-83
2021/10/30 00:28:12;;;;;;;;;;;;;;;;;;5018604;28;20030;-83
2021/10/30 00:30:39;;;;;;;13.75;5.53;;;;;;;;;;5013116;28;19920;-81
2021/10/30 00:33:05;;;;;;;12.48;5.78;;;;;;;;;;5014528;28;20451;-81
2021/10/30 00:35:31;;;;;;;12.45;5.68;;;;;;;;;;5015974;28;20232;-82
2021/10/30 00:37:57;;;;;;;;;;;;;;;;;;5014761;28;20032;-82
2021/10/30 00:40:23;;;;;;;12.88;4.70;;;;;;;;;;5018164;28;19913;-81
2021/10/30 00:42:49;;;;;;;;;;;;;;;;;;5011057;28;20125;-83
2021/10/30 00:45:16;;;;;;;13.95;5.40;;;;;;;;;;5016769;28;20994;-81
2021/10/30 00:47:42;;;;;;;14.57;7.88;;;;;;;;;;5016277;28;20036;-84
2021/10/30 00:50:08;;;;;;;;;;;;;;;;;;5020034;28;20052;-81
2021/10/30 00:52:35;;;;;;;14.40;6.45;;;;;;;;;;5019526;28;19919;-80
2021/10/30 00:55:02;;;;;;;10.82;4.40;;;;;;;;;;5011554;28;20053;-82
2021/10/30 00:57:28;;;;;;;14.77;6.50;;;;;;;;;;5015361;28;20040;-81
2021/10/30 00:59:55;;;;;;;12.82;5.63;;;;;;;;;;5013183;28;20033;-82
2021/10/30 01:02:24;;;;;;;12.45;6.03;;;;;;;;;;5019843;28;20025;-81
2021/10/30 01:04:50;;;;;;;15.07;6.35;;;;;;;;;;5012715;28;20039;-81
2021/10/30 01:07:17;;;;;;;14.98;6.13;;;;;;;;;;5014207;28;20052;-83
2021/10/30 01:09:43;;;;;;;13.00;6.20;;;;;;;;;;5017978;28;20037;-83
2021/10/30 01:12:09;;;;;;;;;;;;;;;;;;5019101;28;20044;-83
2021/10/30 01:14:36;;;;;;;16.23;6.05;;;;;;;;;;5020273;28;19921;-82
2021/10/30 01:17:03;;;;;;;16.35;6.47;;;;;;;;;;5015804;28;20440;-82
2021/10/30 01:19:30;;;;;;;15.48;5.80;;;;;;;;;;5018527;28;20025;-82
2021/10/30 01:21:57;;;;;;;12.52;6.00;;;;;;;;;;5016494;28;20483;-81
2021/10/30 01:24:23;;;;;;;15.60;6.13;;;;;;;;;;5016774;28;20034;-81
2021/10/30 01:26:49;;;;;;;15.13;6.53;;;;;;;;;;5017297;28;20127;-82
2021/10/30 01:29:16;;;;;;;14.25;6.57;;;;;;;;;;5016068;28;20935;-83
2021/10/30 01:31:42;;;;;;;;;;;;;;;;;;5012778;28;21009;-83
2021/10/30 01:34:09;;;;;;;13.27;6.00;;;;;;;;;;5017337;28;20293;-83
2021/10/30 01:36:35;;;;;;;14.27;6.75;;;;;;;;;;5012963;28;20033;-81
2021/10/30 01:39:01;;;;;;;;;;;;;;;;;;5016786;28;20036;-81
2021/10/30 01:41:27;;;;;;;12.75;5.60;;;;;;;;;;5017821;28;20394;-82
2021/10/30 01:43:55;;;;;;;;;;;;;;;;;;5016453;28;20033;-83
2021/10/30 01:46:22;;;;;;;15.15;6.63;;;;;;;;;;5017200;28;20647;-83
2021/10/30 01:48:48;;;;;;;;;;;;;;;;;;5011119;28;20045;-83
2021/10/30 01:51:14;;;;;;;13.45;5.78;;;;;;;;;;5014154;28;20282;-83
2021/10/30 01:53:40;;;;;;;13.50;6.03;;;;;;;;;;5016367;28;20048;-83
2021/10/30 01:56:07;;;;;;;14.68;6.07;;;;;;;;;;5016033;28;20151;-82
2021/10/30 01:58:33;;;;;;;15.85;5.72;;;;;;;;;;5016531;28;20191;-83
2021/10/30 02:01:00;;;;;;;13.55;5.90;;;;;;;;;;5014297;28;21486;-83
2021/10/30 02:03:29;;;;;;;13.50;5.85;;;;;;;;;;5010608;28;20504;-83
2021/10/30 02:05:55;;;;;;;12.73;5.90;;;;;;;;;;5014573;28;20118;-82
2021/10/30 02:08:22;;;;;;;14.07;5.25;;;;;;;;;;5020411;28;20599;-82
2021/10/30 02:10:48;;;;;;;13.30;6.22;;;;;;;;;;5010437;28;20143;-83
2021/10/30 02:13:14;;;;;;;;;;;;;;;;;;5012563;28;20033;-82
2021/10/30 02:15:41;;;;;;;12.80;5.20;;;;;;;;;;5009451;28;19927;-82
2021/10/30 02:18:07;;;;;;;13.25;6.15;;;;;;;;;;5014870;28;20508;-83
2021/10/30 02:20:33;;;;;;;;;;;;;;;;;;5018327;28;20103;-82
2021/10/30 02:23:00;;;;;;;15.57;5.70;;;;;;;;;;5013681;28;19921;-82
2021/10/30 02:25:26;;;;;;;;;;;;;;;;;;5016789;28;20056;-83
2021/10/30 02:27:52;;;;;;;18.27;5.82;;;;;;;;;;5008493;28;19917;-83
2021/10/30 02:30:19;;;;;;;18.15;6.75;;;;;;;;;;5017952;28;20029;-82
2021/10/30 02:32:45;;;;;;;16.17;5.70;;;;;;;;;;5014111;28;20086;-83
2021/10/30 02:35:12;;;;;;;14.45;5.82;;;;;;;;;;5016031;28;20128;-82
2021/10/30 02:37:39;;;;;;;13.70;5.75;;;;;;;;;;5016393;28;20139;-81
2021/10/30 02:40:05;;;;;;;;;;;;;;;;;;5016662;28;20061;-83
2021/10/30 02:42:31;;;;;;;16.30;6.18;;;;;;;;;;5003738;28;20020;-83
2021/10/30 02:44:59;;;;;;;14.60;6.10;;;;;;;;;;5011331;28;20029;-82
2021/10/30 02:47:26;;;;;;;17.27;6.45;;;;;;;;;;5016719;28;20048;-82
2021/10/30 02:49:52;;;;;;;;;;;;;;;;;;5011408;28;20029;-83
2021/10/30 02:52:18;;;;;;;12.32;5.63;;;;;;;;;;5010851;28;19943;-83
2021/10/30 02:54:44;;;;;;;;;;;;;;;;;;5014576;28;20819;-83
2021/10/30 02:57:10;;;;;;;14.32;6.22;;;;;;;;;;5018507;28;19920;-83
2021/10/30 02:59:36;;;;;;;;;;;;;;;;;;5019845;28;20156;-82
2021/10/30 03:02:02;;;;;;;18.17;6.32;;;;;;;;;;5014129;28;19917;-82
2021/10/30 03:04:28;;;;;;;;;;;;;;;;;;5017382;28;20226;-82
2021/10/30 03:06:54;;;;;;;15.40;6.57;;;;;;;;;;5013694;28;19930;-83
2021/10/30 03:09:20;;;;;;;;;;;;;;;;;;5018490;28;20064;-82
2021/10/30 03:11:47;;;;;;;17.60;6.35;;;;;;;;;;5012762;28;20442;-83
2021/10/30 03:14:13;;;;;;;;;;;;;;;;;;5019510;28;20254;-83
2021/10/30 03:16:39;;;;;;;16.20;6.68;;;;;;;;;;5013331;28;20364;-81
2021/10/30 03:19:05;;;;;;;;;;;;;;;;;;5018174;28;20064;-83
2021/10/30 03:21:31;;;;;;;16.58;6.57;;;;;;;;;;5016951;28;20738;-83
2021/10/30 03:23:57;;;;;;;;;;;;;;;;;;5015684;28;20056;-82
2021/10/30 03:26:23;;;;;;;18.17;7.07;;;;;;;;;;5019781;28;19959;-82
2021/10/30 03:28:50;;;;;;;15.35;6.90;;;;;;;;;;5013614;28;20025;-83
2021/10/30 03:31:16;;;;;;;16.92;6.43;;;;;;;;;;5023444;28;20108;-82
2021/10/30 03:33:42;;;;;;;19.38;8.25;;;;;;;;;;5014338;28;21823;-82
2021/10/30 03:36:08;;;;;;;;;;;;;;;;;;5019845;28;20034;-82
2021/10/30 03:38:34;;;;;;;16.65;7.65;;;;;;;;;;5037785;28;19917;-82
2021/10/30 03:41:00;;;;;;;;;;;;;;;;;;5018445;28;20029;-82
2021/10/30 03:43:27;;;;;;;18.52;8.68;;;;;;;;;;5028298;28;20520;-82
2021/10/30 03:45:53;;;;;;;22.30;9.07;;;;;;;;;;5033486;28;20048;-81
2021/10/30 03:48:20;;;;;;;20.20;9.55;;;;;;;;;;5029524;28;20040;-81
2021/10/30 03:50:47;;;;;;;20.42;8.48;;;;;;;;;;5043924;28;20104;-81
2021/10/30 03:53:14;;;;;;;19.65;9.65;;;;;;;;;;5020511;28;20227;-80
2021/10/30 03:55:40;;;;;;;20.02;8.75;;;;;;;;;;5019747;28;20051;-80
2021/10/30 03:58:06;;;;;;;22.10;10.32;;;;;;;;;;5026462;28;20059;-83
2021/10/30 04:00:33;;;;;;;18.65;9.52;;;;;;;;;;5019831;28;20044;-81
2021/10/30 04:03:00;;;;;;;20.75;9.80;;;;;;;;;;5016734;28;20041;-80
2021/10/30 04:05:26;;;;;;;22.83;10.13;;;;;;;;;;5018165;28;20125;-80
2021/10/30 04:07:52;;;;;;;19.23;10.05;;;;;;;;;;5011373;28;20646;-79
2021/10/30 04:10:18;;;;;;;;;;;;;;;;;;5027111;28;20025;-83
2021/10/30 04:12:44;;;;;;;18.80;9.30;;;;;;;;;;5018731;28;19916;-81
2021/10/30 04:15:11;;;;;;;19.33;9.43;;;;;;;;;;5017191;28;20578;-80
2021/10/30 04:17:37;;;;;;;20.60;9.20;;;;;;;;;;5017863;28;20534;-80
2021/10/30 04:20:04;;;;;;;19.48;8.90;;;;;;;;;;5017711;28;20021;-81
2021/10/30 04:22:30;;;;;;;22.67;8.82;;;;;;;;;;5025776;28;20117;-82
2021/10/30 04:24:57;;;;;;;22.42;9.40;;;;;;;;;;5021388;28;20065;-81
2021/10/30 04:27:23;;;;;;;18.10;8.60;;;;;;;;;;5023954;28;20741;-83
2021/10/30 04:29:49;;;;;;;;;;;;;;;;;;5023727;28;20067;-80
2021/10/30 04:32:17;;;;;;;21.38;9.60;;;;;;;;;;5024089;28;20027;-81
2021/10/30 04:34:52;;;;;;;21.55;8.35;;;;;;;;;;5019106;28;20029;-81
2021/10/30 04:37:18;;;;;;;19.10;8.82;;;;;;;;;;5022717;28;20832;-81
2021/10/30 04:39:44;;;;;;;;;;;;;;;;;;5023767;28;20033;-82
2021/10/30 04:42:11;;;;;;;16.48;7.80;;;;;;;;;;5022578;28;19952;-81
2021/10/30 04:44:37;;;;;;;;;;;;;;;;;;5022747;28;20032;-81
2021/10/30 04:47:03;;;;;;;18.48;8.50;;;;;;;;;;5016824;28;20669;-81
2021/10/30 04:49:30;;;;;;;18.58;8.35;;;;;;;;;;5022806;28;20044;-81
2021/10/30 04:51:56;;;;;;;17.95;8.93;;;;;;;;;;5023618;28;20037;-81
2021/10/30 04:54:22;;;;;;;19.13;8.20;;;;;;;;;;5022158;28;20041;-81
2021/10/30 04:56:48;;;;;;;18.48;8.70;;;;;;;;;;5024025;28;20052;-81
2021/10/30 04:59:15;;;;;;;16.45;8.18;;;;;;;;;;5021603;28;20552;-81
2021/10/30 05:01:41;;;;;;;18.63;8.80;;;;;;;;;;5021622;28;20060;-81
2021/10/30 05:04:07;;;;;;;18.02;8.60;;;;;;;;;;5020396;28;20055;-81
2021/10/30 05:06:33;;;;;;;17.95;9.07;;;;;;;;;;5017195;28;20506;-83
2021/10/30 05:08:59;;;;;;;16.70;8.77;;;;;;;;;;5013297;28;22140;-82
2021/10/30 05:11:25;;;;;;;19.35;7.88;;;;;;;;;;5021489;28;20037;-81
2021/10/30 05:13:51;;;;;;;21.88;8.23;;;;;;;;;;5015805;28;20079;-80
2021/10/30 05:16:18;;;;;;;16.60;7.82;;;;;;;;;;5018559;28;20055;-82
2021/10/30 05:18:44;;;;;;;;;;;;;;;;;;5024783;28;20253;-81
2021/10/30 05:21:10;;;;;;;21.20;9.43;;;;;;;;;;5031151;28;20137;-81
2021/10/30 05:23:40;;;;;;;20.17;8.70;;;;;;;;;;5029538;28;20124;-82
2021/10/30 05:26:06;;;;;;;20.48;8.85;;;;;;;;;;5027556;28;20029;-81
2021/10/30 05:28:33;;;;;;;20.50;8.70;;;;;;;;;;5031812;28;20025;-82
2021/10/30 05:31:00;;;;;;;21.58;9.25;;;;;;;;;;5023807;28;20036;-84
2021/10/30 05:33:27;;;;;;;20.00;9.32;;;;;;;;;;5032471;28;20041;-84
2021/10/30 05:35:53;;;;;;;17.92;9.20;;;;;;;;;;5026668;28;20052;-84
2021/10/30 05:38:19;;;;;;;21.60;9.77;;;;;;;;;;5023798;28;20484;-83
2021/10/30 05:40:46;;;;;;;16.70;9.23;;;;;;;;;;5020458;28;20092;-83
2021/10/30 05:43:12;;;;;;;19.35;8.77;;;;;;;;;;5031384;28;20033;-83
2021/10/30 05:45:39;;;;;;;24.20;9.15;;;;;;;;;;5023043;28;20049;-81
2021/10/30 05:48:07;;;;;;;21.35;9.13;;;;;;;;;;5025664;28;20067;-83
2021/10/30 05:50:33;;;;;;;18.75;9.52;;;;;;;;;;5030671;28;20033;-83
2021/10/30 05:53:00;;;;;;;23.40;9.73;;;;;;;;;;5020095;28;20036;-83
2021/10/30 05:55:26;;;;;;;23.33;9.88;;;;;;;;;;5029499;28;20048;-83
2021/10/30 05:57:52;;;;;;;;;;;;;;;;;;5018425;28;20037;-82
2021/10/30 06:00:19;;;;;;;18.48;9.38;;;;;;;;;;5015264;28;20730;-83
2021/10/30 06:02:45;;;;;;;;;;;;;;;;;;5036011;28;20384;-84
2021/10/30 06:05:11;;;;;;;21.42;9.55;;;;;;;;;;5039581;28;19917;-83
2021/10/30 06:07:40;;;;;;;20.55;10.40;;;;;;;;;;5038467;28;20021;-83
2021/10/30 06:10:07;;;;;;;23.83;10.52;;;;;;;;;;5028115;28;20040;-82
2021/10/30 06:12:38;;;;;;;20.17;11.05;;;;;;;;;;5030221;28;20052;-83
2021/10/30 06:15:05;;;;;;;18.65;9.45;;;;;;;;;;5029148;28;20110;-82
2021/10/30 06:17:31;;;;;;;21.92;10.40;;;;;;;;;;5030494;28;20041;-81
2021/10/30 06:19:57;;;;;;;;;;;;;;;;;;5017934;28;20723;-82
2021/10/30 06:22:24;;;;;;;22.38;9.02;;;;;;;;;;5032658;28;19916;-79
2021/10/30 06:24:50;;;;;;;21.67;8.07;;;;;;;;;;5028958;28;20037;-89
2021/10/30 06:27:16;;;;;;;17.48;6.43;;;;;;;;;;5028701;28;20049;-82
2021/10/30 06:29:43;;;;;;;16.67;5.55;;;;;;;;;;5021260;28;20029;-83
2021/10/30 06:32:09;;;;;;;15.82;5.90;;;;;;;;;;5027634;28;20174;-86
2021/10/30 06:34:37;;;;;;;12.95;5.30;;;;;;;;;;5029967;28;20018;-82
2021/10/30 06:37:03;;;;;;;15.40;5.63;;;;;;;;;;5019007;28;20037;-82
2021/10/30 06:39:29;;;;;;;;;;;;;;;;;;5020532;28;20036;-81
2021/10/30 06:41:55;;;;;;;17.17;5.95;;;;;;;;;;5019674;28;19916;-80
2021/10/30 06:44:22;;;;;;;17.33;5.57;;;;;;;;;;5018243;28;20053;-79
2021/10/30 06:46:51;;;;;;;16.58;5.90;;;;;;;;;;5012482;28;20029;-81
2021/10/30 06:49:17;;;;;;;18.25;6.13;;;;;;;;;;5013463;28;20151;-80
2021/10/30 06:51:46;;;;;;;16.58;6.43;;;;;;;;;;5013092;28;20041;-79
2021/10/30 06:54:12;;;;;;;16.58;5.82;;;;;;;;;;5013937;28;20049;-82
2021/10/30 06:56:39;;;;;;;22.65;6.25;;;;;;;;;;5025354;28;20112;-82
2021/10/30 06:59:06;;;;;;;15.75;6.13;;;;;;;;;;5025765;28;20037;-80
2021/10/30 07:01:35;;;;;;;15.07;6.70;;;;;;;;;;5026022;28;20028;-81
2021/10/30 07:04:01;;;;;;;17.20;6.88;;;;;;;;;;5020448;28;20636;-78
2021/10/30 07:06:27;;;;;;;;;;;;;;;;;;5018390;28;20056;-80
2021/10/30 07:08:58;;;;;;;17.17;6.65;;;;;;;;;;5013913;28;19921;-80
2021/10/30 07:11:25;;;;;;;19.13;5.43;;;;;;;;;;5025344;28;20045;-83
2021/10/30 07:17:09;;;;;;;14.15;5.40;;;;;;;;;;5027995;28;19996;-81
2021/10/30 07:19:36;;;;;;;14.90;3.97;;;;;;;;;;5012420;28;20075;-81
2021/10/30 07:22:02;;;;;;;14.02;3.72;;;;;;;;;;5011488;28;20034;-80
2021/10/30 07:24:28;;;;;;;;;;;;;;;;;;5018854;28;20052;-79
2021/10/30 07:26:55;;;;;;;12.20;4.00;;;;;;;;;;5013674;28;19916;-80
2021/10/30 07:29:37;;;;;;;14.20;4.25;;;;;;;;;;5017462;28;20029;-82
2021/10/30 07:32:11;;;;;;;12.68;4.53;;;;;;;;;;5014647;28;20139;-80
2021/10/30 07:34:41;;;;;;;17.35;6.07;;;;;;;;;;5016604;28;20017;-82
2021/10/30 07:37:09;;;;;;;14.23;5.57;;;;;;;;;;5004595;28;20428;-82
2021/10/30 07:39:36;;;;;;;14.77;5.40;;;;;;;;;;5006372;28;20063;-82
2021/10/30 07:42:05;;;;;;;16.40;6.18;;;;;;;;;;5003295;28;20130;-83
2021/10/30 07:44:31;;;;;;;16.85;5.28;;;;;;;;;;5033316;28;20037;-90
2021/10/30 07:46:57;;;;;;;;;;;;;;;;;;5058559;28;20025;-92
2021/10/30 07:49:41;;;;;;;17.83;5.80;;;;;;;;;;5060545;28;19954;-92
2021/10/30 07:52:40;;;;;;;16.90;6.13;;;;;;;;;;5053815;28;20054;-90
2021/10/30 07:58:33;;;;;;;16.10;5.95;;;;;;;;;;5006543;28;20083;-79
2021/10/30 08:01:24;;;;;;;16.05;5.55;;;;;;;;;;5015248;28;21028;-88
2021/10/30 08:03:51;;;;;;;17.42;5.97;;;;;;;;;;5032404;28;20053;-89
2021/10/30 08:06:18;;;;;;;15.57;6.10;;;;;;;;;;5038725;28;20037;-84
2021/10/30 08:08:44;;;;;;;15.68;7.53;;;;;;;;;;5028028;28;20030;-87
2021/10/30 08:11:14;;;;;;;20.25;7.53;;;;;;;;;;5031451;28;20092;-92
2021/10/30 08:13:42;;;;;;;18.75;7.35;;;;;;;;;;5059577;28;20040;-90
2021/10/30 08:16:08;;;;;;;20.10;7.85;;;;;;;;;;5040574;28;20041;-88
2021/10/30 08:18:34;;;;;;;17.13;7.88;;;;;;;;;;5043898;28;20037;-89
2021/10/30 08:21:01;;;;;;;15.50;5.75;;;;;;;;;;5046174;28;20037;-91
2021/10/30 08:23:27;;;;;;;;;;;;;;;;;;5044610;28;20040;-91
2021/10/30 08:25:54;;;;;;;13.05;5.53;;;;;;;;;;5046701;28;19917;-90
2021/10/30 08:28:20;;;;;;;12.65;5.43;;;;;;;;;;5046691;28;20028;-91
2021/10/30 08:30:47;;;;;;;17.52;6.53;;;;;;;;;;5045720;28;20050;-90
2021/10/30 08:33:13;;;;;;;;;;;;;;;;;;5043709;28;20041;-89
2021/10/30 08:35:40;;;;;;;19.13;6.82;;;;;;;;;;5032675;28;19920;-90
2021/10/30 08:38:09;;;;;;;16.02;6.45;;;;;;;;;;5041728;28;20207;-88
2021/10/30 08:40:38;;;;;;;14.40;6.20;;;;;;;;;;5040096;28;20683;-87
2021/10/30 08:43:05;;;;;;;13.80;5.28;;;;;;;;;;5036644;28;20062;-89
2021/10/30 08:45:32;;;;;;;15.07;6.22;;;;;;;;;;5044856;28;20175;-89
2021/10/30 08:48:00;;;;;;;13.35;5.10;;;;;;;;;;5041297;28;20029;-90
2021/10/30 08:50:26;;;;;;;15.73;7.03;;;;;;;;;;5040789;28;20028;-91
2021/10/30 08:52:52;;;;;;;;;;;;;;;;;;5037936;28;20033;-90
2021/10/30 08:55:18;;;;;;;15.75;6.18;;;;;;;;;;5041630;28;19970;-91
2021/10/30 08:57:45;;;;;;;;;;;;;;;;;;5039657;28;20037;-92
2021/10/30 09:00:24;;;;;;;19.05;7.10;;;;;;;;;;5041356;28;20016;-90
2021/10/30 09:02:57;;;;;;;13.25;5.88;;;;;;;;;;5039254;28;20032;-88
2021/10/30 09:05:25;;;;;;;15.40;7.10;;;;;;;;;;5050278;28;20040;-91
2021/10/30 09:07:52;;;;;;;15.90;6.30;;;;;;;;;;5039988;28;20032;-91
2021/10/30 09:10:20;;;;;;;16.88;6.47;;;;;;;;;;5042080;28;20104;-91
2021/10/30 09:12:53;;;;;;;16.42;6.35;;;;;;;;;;5033277;28;20053;-92
2021/10/30 09:15:29;;;;;;;14.57;7.00;;;;;;;;;;5049544;28;20032;-90
2021/10/30 09:17:55;;;;;;;16.75;8.05;;;;;;;;;;5042659;28;20101;-91
2021/10/30 09:20:29;;;;;;;15.13;5.65;;;;;;;;;;5032434;28;20033;-91
2021/10/30 09:22:55;;;;;;;12.38;5.18;;;;;;;;;;5022884;28;20033;-85
2021/10/30 09:25:21;;;;;;;;;;;;;;;;;;5028484;28;20147;-86
2021/10/30 09:27:53;;;;;;;13.05;5.68;;;;;;;;;;5025764;28;19917;-86
2021/10/30 09:30:25;;;;;;;12.75;6.15;;;;;;;;;;5023087;28;20201;-85
2021/10/30 09:32:52;;;;;;;13.98;6.15;;;;;;;;;;5029403;28;20041;-86
2021/10/30 09:35:22;;;;;;;11.18;5.47;;;;;;;;;;5030394;28;20033;-86
2021/10/30 09:37:48;;;;;;;13.35;5.28;;;;;;;;;;5024249;28;20029;-85
2021/10/30 09:40:19;;;;;;;12.75;5.53;;;;;;;;;;5028041;28;20685;-86
2021/10/30 09:42:49;;;;;;;12.73;4.80;;;;;;;;;;5028136;28;20037;-86
2021/10/30 09:45:16;;;;;;;12.75;6.03;;;;;;;;;;5024170;28;20037;-84
2021/10/30 09:47:42;;;;;;;;;;;;;;;;;;5028869;28;20036;-85
2021/10/30 09:50:30;;;;;;;13.77;5.80;;;;;;;;;;5044323;28;19912;-86
2021/10/30 09:52:57;;;;;;;15.68;6.32;;;;;;;;;;5033072;28;20020;-87
2021/10/30 09:55:23;;;;;;;;;;;;;;;;;;5040616;28;20055;-85
2021/10/30 09:57:57;;;;;;;13.85;5.28;;;;;;;;;;5035533;28;19921;-85
2021/10/30 10:00:24;;;;;;;13.13;4.57;;;;;;;;;;5033333;28;20052;-84
2021/10/30 10:02:53;;;;;;;14.15;6.10;;;;;;;;;;5033339;28;20098;-85
2021/10/30 10:05:19;;;;;;;17.65;6.13;;;;;;;;;;5031059;28;20036;-83
2021/10/30 10:07:48;;;;;;;21.67;6.65;;;;;;;;;;5027435;28;20025;-85
2021/10/30 10:10:15;;;;;;;25.23;8.07;;;;;;;;;;5025276;28;20045;-86
2021/10/30 10:12:41;;;;;;;28.83;9.52;;;;;;;;;;5021025;28;20029;-83
2021/10/30 10:15:07;;;;;;;;;;;;;;;;;;5030214;28;20041;-87
2021/10/30 10:17:35;;;;;;;33.38;9.38;;;;;;;;;;5035352;28;19924;-87
2021/10/30 10:20:04;;;;;;;36.08;10.27;;;;;;;;;;5040425;28;20048;-85
2021/10/30 10:22:31;;;;;;;36.15;10.38;;;;;;;;;;5039776;28;20075;-88
2021/10/30 10:25:16;;;;;;;40.75;10.32;;;;;;;;;;5035178;28;20112;-87
2021/10/30 10:27:42;;;;;;;35.38;10.32;;;;;;;;;;5032521;28;20029;-87
2021/10/30 10:30:08;;;;;;;;;;;;;;;;;;5034535;28;20032;-86
2021/10/30 10:32:34;;;;;;;40.50;10.85;;;;;;;;;;5034184;28;20556;-85
2021/10/30 10:35:00;;;;;;;;;;;;;;;;;;5029261;28;20060;-89
2021/10/30 10:37:26;;;;;;;36.03;10.43;;;;;;;;;;5037598;28;19916;-85
2021/10/30 10:39:57;;;;;;;33.95;10.40;;;;;;;;;;5045973;28;20033;-86
2021/10/30 10:42:35;;;;;;;39.28;11.50;;;;;;;;;;5039121;28;20072;-84
2021/10/30 10:45:03;;;;;;;40.17;11.52;;;;;;;;;;5025009;28;20047;-85
2021/10/30 10:47:38;;;;;;;34.65;11.05;;;;;;;;;;5022733;28;20092;-82
2021/10/30 10:50:18;;;;;;;33.88;10.82;;;;;;;;;;5022919;28;20033;-83
2021/10/30 10:53:07;;;;;;;34.08;10.40;;;;;;;;;;5030478;28;20146;-87
2021/10/30 10:55:35;;;;;;;34.00;9.82;;;;;;;;;;5038857;28;20064;-88
2021/10/30 10:58:02;;;;;;;36.53;10.38;;;;;;;;;;5027374;28;20045;-84
2021/10/30 11:00:29;;;;;;;36.50;10.63;;;;;;;;;;5031794;28;20072;-83
2021/10/30 11:02:56;;;;;;;29.08;8.73;;;;;;;;;;5026825;28;20037;-87
2021/10/30 11:05:22;;;;;;;32.85;9.55;;;;;;;;;;5049886;28;20132;-88
2021/10/30 11:07:51;;;;;;;31.55;9.30;;;;;;;;;;5027156;28;20033;-88
2021/10/30 11:10:27;;;;;;;31.30;7.80;;;;;;;;;;5032113;28;20029;-87
2021/10/30 11:13:04;;;;;;;35.30;8.98;;;;;;;;;;5030682;28;20040;-86
2021/10/30 11:15:39;;;;;;;30.65;9.45;;;;;;;;;;5027812;28;20025;-87
2021/10/30 11:18:09;;;;;;;31.63;8.43;;;;;;;;;;5025372;28;20036;-86
2021/10/30 11:20:36;;;;;;;36.35;9.20;;;;;;;;;;5032664;28;20041;-88
2021/10/30 11:23:04;;;;;;;30.65;9.10;;;;;;;;;;5032323;28;20029;-84
2021/10/30 11:25:30;;;;;;;31.98;8.68;;;;;;;;;;5034201;28;20135;-86
2021/10/30 11:27:57;;;;;;;29.92;7.80;;;;;;;;;;5026498;28;20033;-86
2021/10/30 11:30:42;;;;;;;32.20;8.35;;;;;;;;;;5030514;28;20048;-85
2021/10/30 11:33:24;;;;;;;36.28;8.80;;;;;;;;;;5026276;28;20037;-83
2021/10/30 11:35:56;;;;;;;30.48;8.48;;;;;;;;;;5027423;28;20033;-86
2021/10/30 11:38:22;;;;;;;34.63;8.85;;;;;;;;;;5029637;28;20033;-87
2021/10/30 11:40:59;;;;;;;37.47;9.57;;;;;;;;;;5027594;28;20118;-90
2021/10/30 11:43:26;;;;;;;40.70;9.80;;;;;;;;;;5022612;28;20531;-85
2021/10/30 11:45:54;;;;;;;37.55;9.30;;;;;;;;;;5021954;28;20044;-85
2021/10/30 11:48:22;;;;;;;29.88;8.85;;;;;;;;;;5026196;28;20063;-84
2021/10/30 11:50:55;;;;;;;40.92;9.98;;;;;;;;;;5027265;28;20057;-86
2021/10/30 11:53:22;;;;;;;35.22;9.43;;;;;;;;;;5034689;28;20059;-86
2021/10/30 11:56:07;;;;;;;36.22;9.35;;;;;;;;;;5029620;28;20068;-88
2021/10/30 11:58:50;;;;;;;42.20;11.32;;;;;;;;;;5013895;28;20033;-82
2021/10/30 12:01:27;;;;;;;36.10;11.80;;;;;;;;;;5037061;28;20120;-87
2021/10/30 12:04:01;;;;;;;35.28;10.05;;;;;;;;;;5042887;28;20044;-89
2021/10/30 12:06:29;;;;;;;37.53;11.32;;;;;;;;;;5039984;28;20057;-86
2021/10/30 12:08:57;;;;;;;32.92;9.20;;;;;;;;;;5030392;28;20048;-88
2021/10/30 12:11:24;;;;;;;32.75;7.88;;;;;;;;;;5042689;28;20044;-88
2021/10/30 12:13:51;;;;;;;30.50;6.88;;;;;;;;;;5057266;28;20038;-89
2021/10/30 12:16:18;;;;;;;38.25;8.23;;;;;;;;;;5056844;28;20056;-86
2021/10/30 12:18:44;;;;;;;;;;;;;;;;;;5044406;28;20635;-87
2021/10/30 12:21:14;;;;;;;26.48;6.82;;;;;;;;;;5043646;28;20459;-86
2021/10/30 12:23:58;;;;;;;33.25;7.50;;;;;;;;;;5035281;28;20036;-90
2021/10/30 12:26:28;;;;;;;30.25;7.30;;;;;;;;;;5053430;28;20029;-91
2021/10/30 12:28:55;;;;;;;34.95;7.40;;;;;;;;;;5056173;28;20017;-88
2021/10/30 12:31:30;;;;;;;30.48;7.45;;;;;;;;;;5059905;28;20025;-88
2021/10/30 12:33:58;;;;;;;27.17;6.65;;;;;;;;;;5033626;28;20151;-89
2021/10/30 12:36:25;;;;;;;28.58;7.13;;;;;;;;;;5040273;28;20037;-89
2021/10/30 12:38:54;;;;;;;34.45;7.80;;;;;;;;;;5038508;28;20430;-86
2021/10/30 12:41:23;;;;;;;26.42;6.45;;;;;;;;;;5038636;28;20036;-89
2021/10/30 12:43:49;;;;;;;31.60;7.00;;;;;;;;;;5041266;28;20025;-85
2021/10/30 12:46:15;;;;;;;30.20;6.65;;;;;;;;;;5035841;28;20033;-88
2021/10/30 12:48:44;;;;;;;28.48;6.65;;;;;;;;;;5026485;28;20040;-84
2021/10/30 12:51:11;;;;;;;29.23;6.55;;;;;;;;;;5040585;28;20041;-86
2021/10/30 12:53:37;;;;;;;30.85;7.90;;;;;;;;;;5043068;28;20025;-91
2021/10/30 12:56:11;;;;;;;30.38;7.57;;;;;;;;;;5037439;28;20046;-90
2021/10/30 12:58:44;;;;;;;28.00;6.85;;;;;;;;;;5045049;28;20029;-86
2021/10/30 13:01:21;;;;;;;32.42;7.65;;;;;;;;;;5044258;28;20036;-87
2021/10/30 13:03:49;;;;;;;37.65;7.97;;;;;;;;;;5039243;28;20068;-90
2021/10/30 13:06:17;;;;;;;35.92;10.15;;;;;;;;;;5036868;28;20207;-88
2021/10/30 13:08:49;;;;;;;38.45;8.30;;;;;;;;;;5042883;28;20037;-90
2021/10/30 13:11:17;;;;;;;34.42;7.75;;;;;;;;;;5060920;28;20391;-84
2021/10/30 13:13:43;;;;;;;38.72;7.47;;;;;;;;;;5043436;28;20436;-90
2021/10/30 13:16:10;;;;;;;39.08;8.25;;;;;;;;;;5045027;28;20936;-87
2021/10/30 13:18:36;;;;;;;31.27;7.28;;;;;;;;;;5050389;28;20094;-86
2021/10/30 13:21:02;;;;;;;36.60;7.75;;;;;;;;;;5040302;28;20041;-87
2021/10/30 13:23:29;;;;;;;30.30;7.40;;;;;;;;;;5036634;28;20071;-87
2021/10/30 13:25:55;;;;;;;33.47;8.40;;;;;;;;;;5028224;28;20149;-88
2021/10/30 13:28:22;;;;;;;37.47;7.93;;;;;;;;;;5038220;28;20063;-87
2021/10/30 13:30:48;;;;;;;40.85;8.68;;;;;;;;;;5043680;28;20037;-89
2021/10/30 13:33:15;;;;;;;35.17;7.97;;;;;;;;;;5034875;28;20075;-87
2021/10/30 13:35:41;;;;;;;43.10;9.48;;;;;;;;;;5037033;28;20036;-89
2021/10/30 13:38:07;;;;;;;33.40;7.97;;;;;;;;;;5032828;28;20035;-86
2021/10/30 13:40:33;;;;;;;34.85;8.27;;;;;;;;;;5048354;28;20036;-85
2021/10/30 13:43:00;;;;;;;32.28;7.20;;;;;;;;;;5038090;28;20063;-87
2021/10/30 13:45:26;;;;;;;34.92;8.68;;;;;;;;;;5042794;28;20037;-88
2021/10/30 13:47:52;;;;;;;39.38;8.98;;;;;;;;;;5041660;28;20117;-85
2021/10/30 13:50:19;;;;;;;36.30;9.05;;;;;;;;;;5031805;28;20124;-86
2021/10/30 13:52:45;;;;;;;36.15;8.60;;;;;;;;;;5032039;28;20072;-85
2021/10/30 13:55:11;;;;;;;35.25;8.05;;;;;;;;;;5033799;28;20037;-84
2021/10/30 13:57:38;;;;;;;34.35;8.13;;;;;;;;;;5036303;28;20040;-85
2021/10/30 14:00:07;;;;;;;43.05;9.55;;;;;;;;;;5036922;28;20037;-86
2021/10/30 14:02:33;;;;;;;36.63;8.45;;;;;;;;;;5044762;28;20035;-88
2021/10/30 14:04:59;;;;;;;;;;;;;;;;;;5049062;28;20076;-87
2021/10/30 14:07:26;;;;;;;41.40;9.15;;;;;;;;;;5048837;28;19999;-86
2021/10/30 14:09:52;;;;;;;44.70;10.27;;;;;;;;;;5043899;28;20132;-86
2021/10/30 14:12:18;;;;;;;44.60;10.32;;;;;;;;;;5044529;28;20556;-88
2021/10/30 14:14:44;;;;;;;36.58;8.95;;;;;;;;;;5036614;28;20029;-87
2021/10/30 14:17:10;;;;;;;;;;;;;;;;;;5038294;28;20025;-87
2021/10/30 14:19:40;;;;;;;38.78;9.27;;;;;;;;;;5045187;28;19916;-87
2021/10/30 14:22:06;;;;;;;39.83;9.00;;;;;;;;;;5036365;28;20087;-86
2021/10/30 14:24:33;;;;;;;36.85;9.15;;;;;;;;;;5041215;28;20076;-87
2021/10/30 14:26:59;;;;;;;34.97;9.07;;;;;;;;;;5034530;28;20052;-87
2021/10/30 14:29:25;;;;;;;37.13;8.90;;;;;;;;;;5042345;28;20096;-87
2021/10/30 14:31:56;;;;;;;;;;;;;;;;;;5044305;28;20112;-90
2021/10/30 14:34:28;;;;;;;31.88;7.63;;;;;;;;;;5036132;28;19909;-86
2021/10/30 14:36:55;;;;;;;33.35;7.53;;;;;;;;;;5044446;28;21133;-88
2021/10/30 14:39:21;;;;;;;37.85;9.07;;;;;;;;;;5045800;28;20132;-86
2021/10/30 14:41:47;;;;;;;42.45;8.27;;;;;;;;;;5041640;28;20056;-89
2021/10/30 14:44:13;;;;;;;;;;;;;;;;;;5045747;28;20134;-84
2021/10/30 14:46:40;;;;;;;38.97;8.13;;;;;;;;;;5040329;28;20465;-85
2021/10/30 14:49:06;;;;;;;35.90;9.45;;;;;;;;;;5040016;28;20121;-89
2021/10/30 14:51:32;;;;;;;38.05;8.68;;;;;;;;;;5034868;28;20040;-87
2021/10/30 14:53:59;;;;;;;35.42;8.93;;;;;;;;;;5035025;28;20044;-86
2021/10/30 14:56:25;;;;;;;;;;;;;;;;;;5038645;28;20056;-88